Ilha De Sao Luis — CSXR3 — position and weather

sailwx.info

Track history (hours):
 
Tides and Currents Weather Stations Pressure Air Temp Water Temp Dewpoint Dewpoint Depression Visibility Wind Speed Wind Dir Waves Ship Positions

Ilha De Sao Luis

Last reported at 2018-Apr-07 00:13 UTC. Time now 2018-Apr-23 21:14 UTC.
Position N 38°43' W 027°03'.
Warning: this ship's position is 16 days out of date.

; draft 3 m.

Type: Tug. MMSI: 204601240.

Date/timePositionNaut miles runAvg speedWind from/ knotsBaromVisibWave heightAir tempDewpointWater temp
2018-Apr-07 00:13N 38°43' W 027°03'0 0.2
2018-Apr-07 00:01N 38°43' W 027°03'1 1.1
2018-Apr-06 23:30N 38°43' W 027°03'1 1.6
2018-Apr-06 23:00N 38°43' W 027°03'0 0.0
2018-Apr-06 22:30N 38°43' W 027°03'0 0.0
2018-Apr-06 22:00N 38°43' W 027°03'0 0.0
2018-Apr-06 21:30N 38°43' W 027°03'0 0.0
2018-Apr-06 21:00N 38°43' W 027°03'0 0.0
2018-Apr-06 20:31N 38°43' W 027°03'0 0.0
2018-Apr-06 20:00N 38°43' W 027°03'0 0.0
2018-Apr-06 19:30N 38°43' W 027°03'0 0.0
2018-Apr-06 19:00N 38°43' W 027°03'0 0.0
2018-Apr-06 18:31N 38°43' W 027°03'0 0.0
2018-Apr-06 18:00N 38°43' W 027°03'0 0.0
2018-Apr-06 17:31N 38°43' W 027°03'0 0.0
2018-Apr-06 17:00N 38°43' W 027°03'0 0.0
2018-Apr-06 16:30N 38°43' W 027°03'2 3.8
2018-Apr-06 16:00N 38°42' W 027°01'7 8.6
2018-Apr-06 15:10N 38°38' W 027°09'210.6
2018-Apr-06 14:57N 38°38' W 027°12'410.0
2018-Apr-06 14:30N 38°36' W 027°17'5 9.8
2018-Apr-06 14:00N 38°34' W 027°22'5 9.9
2018-Apr-06 13:30N 38°33' W 027°29'5 9.9
2018-Apr-06 13:00N 38°33' W 027°35'510.3
2018-Apr-06 12:31N 38°32' W 027°41'610.5
2018-Apr-06 11:59N 38°31' W 027°49'510.5
2018-Apr-06 11:30N 38°33' W 027°55'712.1
2018-Apr-06 10:57N 38°35' W 028°03'511.7
2018-Apr-06 10:30N 38°36' W 028°10'611.4
2018-Apr-06 10:00N 38°36' W 028°17'611.4
2018-Apr-06 09:30N 38°35' W 028°24'510.6
2018-Apr-06 09:00N 38°35' W 028°31'510.7
2018-Apr-06 08:30N 38°32' W 028°37'1 1.6
2018-Apr-06 07:59N 38°32' W 028°37'0 0.0
2018-Apr-06 07:30N 38°32' W 028°37'0 0.0
2018-Apr-06 07:00N 38°32' W 028°37'0 0.0
2018-Apr-06 06:30N 38°32' W 028°37'0 0.0
2018-Apr-06 06:00N 38°32' W 028°37'0 0.0
2018-Apr-06 05:30N 38°32' W 028°37'0 0.0
2018-Apr-06 05:00N 38°32' W 028°37'0 0.0
2018-Apr-06 04:30N 38°32' W 028°37'0 0.0
2018-Apr-06 04:00N 38°32' W 028°37'0 0.0
2018-Apr-06 03:29N 38°32' W 028°37'0 0.0
2018-Apr-06 02:59N 38°32' W 028°37'0 0.0
2018-Apr-06 02:30N 38°32' W 028°37'0 0.0
2018-Apr-06 02:00N 38°32' W 028°37'0 0.0
2018-Apr-06 01:30N 38°32' W 028°37'0 0.0
2018-Apr-06 01:00N 38°32' W 028°37'0 0.0
2018-Apr-06 00:30N 38°32' W 028°37'0 0.0
2018-Apr-06 00:00N 38°32' W 028°37'0 0.0
2018-Apr-05 23:30N 38°32' W 028°37'0 0.0
2018-Apr-05 23:00N 38°32' W 028°37'0 0.0
2018-Apr-05 22:30N 38°32' W 028°37'0 0.0
2018-Apr-05 22:00N 38°32' W 028°37'0 0.0
2018-Apr-05 21:30N 38°32' W 028°37'0 0.0
2018-Apr-05 20:58N 38°32' W 028°37'0 0.0
2018-Apr-05 20:30N 38°32' W 028°37'0 0.0
2018-Apr-05 19:56N 38°32' W 028°37'0 0.0
2018-Apr-05 19:28N 38°32' W 028°37'0 0.0
2018-Apr-05 19:00N 38°32' W 028°37'0 0.0
2018-Apr-05 18:30N 38°32' W 028°37'0 0.0
2018-Apr-05 17:58N 38°32' W 028°37'0 0.0
2018-Apr-05 17:30N 38°32' W 028°37'0 0.0
2018-Apr-05 17:00N 38°32' W 028°37'0 0.0
2018-Apr-05 16:30N 38°32' W 028°37'0 0.0
2018-Apr-05 16:01N 38°32' W 028°37'0 0.0
2018-Apr-05 15:30N 38°32' W 028°37'0 0.0
2018-Apr-05 14:56N 38°32' W 028°37'0 0.0
2018-Apr-05 14:30N 38°32' W 028°37'0 0.0
2018-Apr-05 14:00N 38°32' W 028°37'0 0.0
2018-Apr-05 13:30N 38°32' W 028°37'0 0.0
2018-Apr-05 13:00N 38°32' W 028°37'0 0.0
2018-Apr-05 12:30N 38°32' W 028°37'0 0.0
2018-Apr-05 12:00N 38°32' W 028°37'0 0.0
2018-Apr-05 11:30N 38°32' W 028°37'0 0.0
2018-Apr-05 11:00N 38°32' W 028°37'0 0.0
2018-Apr-05 10:30N 38°32' W 028°37'0 0.0
2018-Apr-05 10:00N 38°32' W 028°37'0 0.0
2018-Apr-05 09:30N 38°32' W 028°37'0 0.0
2018-Apr-05 08:57N 38°32' W 028°37'0 0.0
2018-Apr-05 08:31N 38°32' W 028°37'0 0.0
2018-Apr-05 07:54N 38°32' W 028°37'0 0.0
2018-Apr-05 07:23N 38°32' W 028°37'0 0.0
2018-Apr-05 07:00N 38°32' W 028°37'0 0.0
2018-Apr-05 06:29N 38°32' W 028°37'0 0.0
2018-Apr-05 05:57N 38°32' W 028°37'0 0.0
2018-Apr-05 05:29N 38°32' W 028°37'0 0.0
2018-Apr-05 04:58N 38°32' W 028°37'0 0.0
2018-Apr-05 04:26N 38°32' W 028°37'0 0.0
2018-Apr-05 03:58N 38°32' W 028°37'0 0.0
2018-Apr-05 03:24N 38°32' W 028°37'0 0.0
2018-Apr-05 03:00N 38°32' W 028°37'0 0.0
2018-Apr-05 02:30N 38°32' W 028°37'0 0.0
2018-Apr-05 02:00N 38°32' W 028°37'0 0.0
2018-Apr-05 01:28N 38°32' W 028°37'0 0.0
2018-Apr-05 00:58N 38°32' W 028°37'0 0.0
2018-Apr-05 00:30N 38°32' W 028°37'0 0.0
2018-Apr-04 23:59N 38°32' W 028°37'0 0.0
2018-Apr-04 23:30N 38°32' W 028°37'0 0.0
2018-Apr-04 23:00N 38°32' W 028°37'0 0.0
2018-Apr-04 22:30N 38°32' W 028°37'0 0.0
2018-Apr-04 21:59N 38°32' W 028°37'0 0.0
2018-Apr-04 21:28N 38°32' W 028°37'0 0.0
2018-Apr-04 21:00N 38°32' W 028°37'0 0.0
2018-Apr-04 20:29N 38°32' W 028°37'0 0.0
2018-Apr-04 20:00N 38°32' W 028°37'0 0.0
2018-Apr-04 19:30N 38°32' W 028°37'0 0.0
2018-Apr-04 19:00N 38°32' W 028°37'0 0.0
2018-Apr-04 18:29N 38°32' W 028°37'0 0.0
2018-Apr-04 17:56N 38°32' W 028°37'0 0.0
2018-Apr-04 17:24N 38°32' W 028°37'0 0.0
2018-Apr-04 16:59N 38°32' W 028°37'0 0.0
2018-Apr-04 16:29N 38°32' W 028°37'0 0.0
2018-Apr-04 15:58N 38°32' W 028°37'0 0.0
2018-Apr-04 14:47N 38°32' W 028°37'0 0.0
2018-Apr-04 14:30N 38°32' W 028°37'0 0.0
2018-Apr-04 14:00N 38°32' W 028°37'0 0.0
2018-Apr-04 12:56N 38°32' W 028°37'0 0.0
2018-Apr-04 12:15N 38°32' W 028°37'0 0.0
2018-Apr-04 11:59N 38°32' W 028°37'0 0.0
2018-Apr-04 11:29N 38°32' W 028°37'0 0.0
2018-Apr-04 09:22N 38°32' W 028°37'0 0.0
2018-Apr-04 09:00N 38°32' W 028°37'0 0.0
2018-Apr-04 07:45N 38°32' W 028°37'0 0.0
2018-Apr-04 07:29N 38°32' W 028°37'0 0.0
2018-Apr-04 06:48N 38°32' W 028°37'0 0.0
2018-Apr-04 06:27N 38°32' W 028°37'0 0.0
2018-Apr-04 05:57N 38°32' W 028°37'0 0.0
2018-Apr-04 05:28N 38°32' W 028°37'0 0.0
2018-Apr-04 04:59N 38°32' W 028°37'0 0.0
2018-Apr-04 04:30N 38°32' W 028°37'0 0.0
2018-Apr-04 04:00N 38°32' W 028°37'0 0.0
2018-Apr-04 03:28N 38°32' W 028°37'0 0.0
2018-Apr-04 02:59N 38°32' W 028°37'0 0.0
2018-Apr-04 02:29N 38°32' W 028°37'0 0.0
2018-Apr-04 02:00N 38°32' W 028°37'0 0.0
2018-Apr-04 01:28N 38°32' W 028°37'0 0.0
2018-Apr-04 00:57N 38°32' W 028°37'0 0.0
2018-Apr-04 00:30N 38°32' W 028°37'0 0.0
2018-Apr-04 00:00N 38°32' W 028°37'0 0.0
2018-Apr-03 23:30N 38°32' W 028°37'0 0.0
2018-Apr-03 23:00N 38°32' W 028°37'0 0.0
2018-Apr-03 22:28N 38°32' W 028°37'0 0.0
2018-Apr-03 21:59N 38°32' W 028°37'0 0.0
2018-Apr-03 21:30N 38°32' W 028°37'0 0.0
2018-Apr-03 21:00N 38°32' W 028°37'0 0.0
2018-Apr-03 20:30N 38°32' W 028°37'0 0.0
2018-Apr-03 19:59N 38°32' W 028°37'0 0.0
2018-Apr-03 19:30N 38°32' W 028°37'0 0.0
2018-Apr-03 19:00N 38°32' W 028°37'0 0.0
2018-Apr-03 18:30N 38°32' W 028°37'0 0.0
2018-Apr-03 18:00N 38°32' W 028°37'0 0.0
2018-Apr-03 17:30N 38°32' W 028°37'0 0.0
2018-Apr-03 17:00N 38°32' W 028°37'0 0.0
2018-Apr-03 16:30N 38°32' W 028°37'0 0.0
2018-Apr-03 16:00N 38°32' W 028°37'0 0.0
2018-Apr-03 15:30N 38°32' W 028°37'0 0.0
2018-Apr-03 15:00N 38°32' W 028°37'0 0.0
2018-Apr-03 14:29N 38°32' W 028°37'0 0.0
2018-Apr-03 14:00N 38°32' W 028°37'0 0.0
2018-Apr-03 13:31N 38°32' W 028°37'0 0.0
2018-Apr-03 13:00N 38°32' W 028°37'0 0.0
2018-Apr-03 12:30N 38°32' W 028°37'0 0.0
2018-Apr-03 12:00N 38°32' W 028°37'0 0.0
2018-Apr-03 11:30N 38°32' W 028°37'0 0.0
2018-Apr-03 11:01N 38°32' W 028°37'0 0.0
2018-Apr-03 10:27N 38°32' W 028°37'0 0.0
2018-Apr-03 10:00N 38°32' W 028°37'0 0.0
2018-Apr-03 09:30N 38°32' W 028°37'0 0.3
2018-Apr-03 09:00N 38°32' W 028°37'0 0.0
2018-Apr-03 08:28N 38°32' W 028°37'0 0.0
2018-Apr-03 07:59N 38°32' W 028°37'0 0.0
2018-Apr-03 07:30N 38°32' W 028°37'0 0.0
2018-Apr-03 06:59N 38°32' W 028°37'0 0.0
2018-Apr-03 06:27N 38°32' W 028°37'0 0.0
2018-Apr-03 05:58N 38°32' W 028°37'0 0.0
2018-Apr-03 05:30N 38°32' W 028°37'0 0.0
2018-Apr-03 05:00N 38°32' W 028°37'0 0.0
2018-Apr-03 04:29N 38°32' W 028°37'0 0.0
2018-Apr-03 04:00N 38°32' W 028°37'0 0.0
2018-Apr-03 03:29N 38°32' W 028°37'0 0.0
2018-Apr-03 03:00N 38°32' W 028°37'0 0.0
2018-Apr-03 02:30N 38°32' W 028°37'0 0.0
2018-Apr-03 02:00N 38°32' W 028°37'0 0.0
2018-Apr-03 01:30N 38°32' W 028°37'0 0.0
2018-Apr-03 01:00N 38°32' W 028°37'0 0.0
2018-Apr-03 00:28N 38°32' W 028°37'0 0.0
2018-Apr-03 00:00N 38°32' W 028°37'0 0.0
2018-Apr-02 23:30N 38°32' W 028°37'0 0.0
2018-Apr-02 22:59N 38°32' W 028°37'0 0.0
2018-Apr-02 22:30N 38°32' W 028°37'0 0.0
2018-Apr-02 21:59N 38°32' W 028°37'0 0.0
2018-Apr-02 21:28N 38°32' W 028°37'0 0.0
2018-Apr-02 20:57N 38°32' W 028°37'0 0.0
2018-Apr-02 20:30N 38°32' W 028°37'0 0.0
2018-Apr-02 19:58N 38°32' W 028°37'0 0.0
2018-Apr-02 19:28N 38°32' W 028°37'0 0.0
2018-Apr-02 18:59N 38°32' W 028°37'0 0.0
2018-Apr-02 18:27N 38°32' W 028°37'0 0.0
2018-Apr-02 18:01N 38°32' W 028°37'0 0.0
2018-Apr-02 17:29N 38°32' W 028°37'0 0.0
2018-Apr-02 17:00N 38°32' W 028°37'0 0.0
2018-Apr-02 16:30N 38°32' W 028°37'0 0.0
2018-Apr-02 16:00N 38°32' W 028°37'0 0.0
2018-Apr-02 15:30N 38°32' W 028°37'0 0.0
2018-Apr-02 14:58N 38°32' W 028°37'0 0.0
2018-Apr-02 14:28N 38°32' W 028°37'0 0.0
2018-Apr-02 14:00N 38°32' W 028°37'0 0.0
2018-Apr-02 13:30N 38°32' W 028°37'0 0.0
2018-Apr-02 12:58N 38°32' W 028°37'0 0.0
2018-Apr-02 12:30N 38°32' W 028°37'0 0.0
2018-Apr-02 12:00N 38°32' W 028°37'0 0.0
2018-Apr-02 11:30N 38°32' W 028°37'0 0.0
2018-Apr-02 11:00N 38°32' W 028°37'0 0.0
2018-Apr-02 10:30N 38°32' W 028°37'0 0.0
2018-Apr-02 10:00N 38°32' W 028°37'0 0.0
2018-Apr-02 09:16N 38°32' W 028°37'0 0.0
2018-Apr-02 08:58N 38°32' W 028°37'0 0.0
2018-Apr-02 08:30N 38°32' W 028°37'0 0.0
2018-Apr-02 08:00N 38°32' W 028°37'0 0.0
2018-Apr-02 07:30N 38°32' W 028°37'0 0.0
2018-Apr-02 07:00N 38°32' W 028°37'0 0.0
2018-Apr-02 06:29N 38°32' W 028°37'0 0.0
2018-Apr-02 05:59N 38°32' W 028°37'0 0.0
2018-Apr-02 05:30N 38°32' W 028°37'0 0.0
2018-Apr-02 04:59N 38°32' W 028°37'0 0.0
2018-Apr-02 04:30N 38°32' W 028°37'0 0.0
2018-Apr-02 04:00N 38°32' W 028°37'0 0.0
2018-Apr-02 03:20N 38°32' W 028°37'0 0.0
2018-Apr-02 02:59N 38°32' W 028°37'0 0.0
2018-Apr-02 02:29N 38°32' W 028°37'0 0.0
2018-Apr-02 01:40N 38°32' W 028°37'0 0.0
2018-Apr-02 01:30N 38°32' W 028°37'0 0.0
2018-Apr-02 00:51N 38°32' W 028°37'0 0.0
2018-Apr-02 00:27N 38°32' W 028°37'0 0.0
2018-Apr-01 23:59N 38°32' W 028°37'0 0.0
2018-Apr-01 23:24N 38°32' W 028°37'0 0.0
2018-Apr-01 22:59N 38°32' W 028°37'0 0.0
2018-Apr-01 22:28N 38°32' W 028°37'0 0.0
2018-Apr-01 21:54N 38°32' W 028°37'0 0.0
2018-Apr-01 21:30N 38°32' W 028°37'0 0.0
2018-Apr-01 20:59N 38°32' W 028°37'0 0.0
2018-Apr-01 20:29N 38°32' W 028°37'0 0.0
2018-Apr-01 19:57N 38°32' W 028°37'0 0.0
2018-Apr-01 19:26N 38°32' W 028°37'0 0.0
2018-Apr-01 19:00N 38°32' W 028°37'0 0.0
2018-Apr-01 18:30N 38°32' W 028°37'0 0.0
2018-Apr-01 18:00N 38°32' W 028°37'0 0.0
2018-Apr-01 17:28N 38°32' W 028°37'0 0.0
2018-Apr-01 17:00N 38°32' W 028°37'0 0.0
2018-Apr-01 16:30N 38°32' W 028°37'0 0.0
2018-Apr-01 16:00N 38°32' W 028°37'0 0.0
2018-Apr-01 15:30N 38°32' W 028°37'0 0.0
2018-Apr-01 15:00N 38°32' W 028°37'0 0.0
2018-Apr-01 14:29N 38°32' W 028°37'0 0.0
2018-Apr-01 14:00N 38°32' W 028°37'0 0.0
2018-Apr-01 13:30N 38°32' W 028°37'0 0.0
2018-Apr-01 13:00N 38°32' W 028°37'0 0.0
2018-Apr-01 12:29N 38°32' W 028°37'0 0.0
2018-Apr-01 12:01N 38°32' W 028°37'0 0.0
2018-Apr-01 11:29N 38°32' W 028°37'0 0.0
2018-Apr-01 10:59N 38°32' W 028°37'0 0.0
2018-Apr-01 10:29N 38°32' W 028°37'0 0.0
2018-Apr-01 10:00N 38°32' W 028°37'0 0.0
2018-Apr-01 09:28N 38°32' W 028°37'0 0.0
2018-Apr-01 08:58N 38°32' W 028°37'0 0.0
2018-Apr-01 08:20N 38°32' W 028°37'0 0.0
2018-Apr-01 07:56N 38°32' W 028°37'0 0.0
2018-Apr-01 07:27N 38°32' W 028°37'0 0.0
2018-Apr-01 06:59N 38°32' W 028°37'0 0.0
2018-Apr-01 06:30N 38°32' W 028°37'0 0.0
2018-Apr-01 05:34N 38°32' W 028°37'0 0.0
2018-Apr-01 05:24N 38°32' W 028°37'0 0.0
2018-Apr-01 04:56N 38°32' W 028°37'0 0.0
2018-Apr-01 04:30N 38°32' W 028°37'0 0.0
2018-Apr-01 04:00N 38°32' W 028°37'0 0.0
2018-Apr-01 03:25N 38°32' W 028°37'0 0.0
2018-Apr-01 02:59N 38°32' W 028°37'0 0.0
2018-Apr-01 02:30N 38°32' W 028°37'0 0.0
2018-Apr-01 01:59N 38°32' W 028°37'0 0.0
2018-Apr-01 01:28N 38°32' W 028°37'0 0.0
2018-Apr-01 00:58N 38°32' W 028°37'0 0.0
2018-Apr-01 00:28N 38°32' W 028°37'0 0.0
2018-Mar-31 23:42N 38°32' W 028°37'0 0.0
2018-Mar-31 23:24N 38°32' W 028°37'0 0.0
2018-Mar-31 22:57N 38°32' W 028°37'0 0.0
2018-Mar-31 22:29N 38°32' W 028°37'0 0.0
2018-Mar-31 21:58N 38°32' W 028°37'0 0.0
2018-Mar-31 21:30N 38°32' W 028°37'0 0.0
2018-Mar-31 20:58N 38°32' W 028°37'0 0.0
2018-Mar-31 20:28N 38°32' W 028°37'0 0.0
2018-Mar-31 20:00N 38°32' W 028°37'0 0.0
2018-Mar-31 19:00N 38°32' W 028°37'0 0.0
2018-Mar-31 18:30N 38°32' W 028°37'0 0.0
2018-Mar-31 17:57N 38°32' W 028°37'0 0.0
2018-Mar-31 17:20N 38°32' W 028°37'0 0.0
2018-Mar-31 17:00N 38°32' W 028°37'0 0.0
2018-Mar-31 16:03N 38°32' W 028°37'0 0.0
2018-Mar-31 15:51N 38°32' W 028°37'0 0.0
2018-Mar-31 15:02N 38°32' W 028°37'0 0.0
2018-Mar-31 14:41N 38°32' W 028°37'0 0.0
2018-Mar-31 14:29N 38°32' W 028°37'0 0.0
2018-Mar-31 13:56N 38°32' W 028°37'0 0.0
2018-Mar-31 13:30N 38°32' W 028°37'0 0.0
2018-Mar-31 12:54N 38°32' W 028°37'0 0.0
2018-Mar-31 12:20N 38°32' W 028°37'0 0.0
2018-Mar-31 11:53N 38°32' W 028°37'0 0.0
2018-Mar-31 10:48N 38°32' W 028°37'0 0.0
2018-Mar-31 09:13N 38°32' W 028°37'0 0.0
2018-Mar-31 07:00N 38°32' W 028°37'0 0.0
2018-Mar-31 06:22N 38°32' W 028°37'0 0.0
2018-Mar-31 05:02N 38°32' W 028°37'0 0.0
2018-Mar-31 02:55N 38°32' W 028°37'0 0.0
2018-Mar-31 02:11N 38°32' W 028°37'0 0.0
2018-Mar-31 01:43N 38°32' W 028°37'0 0.0
2018-Mar-31 01:26N 38°32' W 028°37'0 0.0
2018-Mar-31 00:57N 38°32' W 028°37'0 0.0
2018-Mar-31 00:20N 38°32' W 028°37'0 0.0
2018-Mar-30 22:53N 38°32' W 028°37'0 0.0
2018-Mar-30 19:58N 38°32' W 028°37'0 0.0
2018-Mar-30 19:20N 38°32' W 028°37'0 0.0
2018-Mar-30 18:59N 38°32' W 028°37'0 0.0
2018-Mar-30 17:40N 38°32' W 028°37'0 0.0
2018-Mar-30 17:30N 38°32' W 028°37'0 0.0
2018-Mar-30 16:34N 38°32' W 028°37'0 0.0
2018-Mar-30 15:37N 38°32' W 028°37'0 0.0
2018-Mar-30 15:08N 38°32' W 028°37'0 0.0
2018-Mar-30 14:58N 38°32' W 028°37'0 0.0
2018-Mar-30 14:28N 38°32' W 028°37'0 0.0
2018-Mar-30 13:26N 38°32' W 028°37'0 0.0
2018-Mar-30 12:59N 38°32' W 028°37'0 0.0
2018-Mar-30 12:27N 38°32' W 028°37'0 0.0
2018-Mar-30 12:00N 38°32' W 028°37'0 0.0
2018-Mar-30 11:28N 38°32' W 028°37'0 0.0
2018-Mar-30 10:57N 38°32' W 028°37'0 0.0
2018-Mar-30 10:25N 38°32' W 028°37'0 0.0
2018-Mar-30 10:00N 38°32' W 028°37'0 0.0
2018-Mar-30 09:27N 38°32' W 028°37'0 0.0
2018-Mar-30 08:58N 38°32' W 028°37'0 0.0
2018-Mar-30 08:30N 38°32' W 028°37'0 0.0
2018-Mar-30 07:59N 38°32' W 028°37'0 0.0
2018-Mar-30 07:29N 38°32' W 028°37'0 0.0
2018-Mar-30 06:57N 38°32' W 028°37'0 0.0
2018-Mar-30 06:30N 38°32' W 028°37'0 0.0
2018-Mar-30 05:59N 38°32' W 028°37'0 0.0
2018-Mar-30 05:27N 38°32' W 028°37'0 0.0
2018-Mar-30 04:59N 38°32' W 028°37'0 0.0
2018-Mar-30 04:27N 38°32' W 028°37'0 0.0
2018-Mar-30 04:00N 38°32' W 028°37'0 0.0
2018-Mar-30 03:25N 38°32' W 028°37'0 0.0
2018-Mar-30 02:59N 38°32' W 028°37'0 0.0
2018-Mar-30 02:25N 38°32' W 028°37'0 0.0
2018-Mar-30 01:59N 38°32' W 028°37'0 0.0
2018-Mar-30 01:30N 38°32' W 028°37'0 0.0
2018-Mar-30 01:00N 38°32' W 028°37'0 0.0
2018-Mar-30 00:30N 38°32' W 028°37'0 0.0
2018-Mar-30 00:00N 38°32' W 028°37'0 0.0
2018-Mar-29 23:30N 38°32' W 028°37'0 0.0
2018-Mar-29 22:59N 38°32' W 028°37'0 0.0
2018-Mar-29 22:29N 38°32' W 028°37'0 0.0
2018-Mar-29 22:00N 38°32' W 028°37'0 0.0
2018-Mar-29 21:29N 38°32' W 028°37'0 0.0
2018-Mar-29 20:58N 38°32' W 028°37'0 0.0
2018-Mar-29 20:28N 38°32' W 028°37'0 0.0
2018-Mar-29 20:00N 38°32' W 028°37'0 0.0
2018-Mar-29 19:27N 38°32' W 028°37'0 0.0
2018-Mar-29 19:00N 38°32' W 028°37'0 0.0
2018-Mar-29 18:30N 38°32' W 028°37'0 0.0
2018-Mar-29 18:00N 38°32' W 028°37'0 0.0
2018-Mar-29 17:29N 38°32' W 028°37'0 0.0
2018-Mar-29 17:00N 38°32' W 028°37'0 0.0
2018-Mar-29 16:30N 38°32' W 028°37'0 0.0
2018-Mar-29 16:00N 38°32' W 028°37'0 0.0
2018-Mar-29 15:30N 38°32' W 028°37'0 0.0
2018-Mar-29 15:00N 38°32' W 028°37'0 0.0
2018-Mar-29 14:30N 38°32' W 028°37'0 0.0
2018-Mar-29 14:00N 38°32' W 028°37'0 0.0
2018-Mar-29 13:30N 38°32' W 028°37'0 0.0
2018-Mar-29 13:00N 38°32' W 028°37'0 0.0
2018-Mar-29 12:30N 38°32' W 028°37'0 0.0
2018-Mar-29 12:00N 38°32' W 028°37'0 0.0
2018-Mar-29 11:29N 38°32' W 028°37'0 0.0
2018-Mar-29 11:00N 38°32' W 028°37'0 0.0
2018-Mar-29 10:30N 38°32' W 028°37'0 0.0
2018-Mar-29 09:59N 38°32' W 028°37'0 0.0
2018-Mar-29 09:29N 38°32' W 028°37'0 0.0
2018-Mar-29 09:00N 38°32' W 028°37'0 0.0
2018-Mar-29 08:25N 38°32' W 028°37'0 0.0
2018-Mar-29 07:57N 38°32' W 028°37'0 0.0
2018-Mar-29 07:27N 38°32' W 028°37'0 0.0
2018-Mar-29 06:56N 38°32' W 028°37'0 0.0
2018-Mar-29 06:28N 38°32' W 028°37'0 0.0
2018-Mar-29 06:00N 38°32' W 028°37'0 0.0
2018-Mar-29 05:30N 38°32' W 028°37'0 0.0
2018-Mar-29 05:00N 38°32' W 028°37'0 0.0
2018-Mar-29 04:30N 38°32' W 028°37'0 0.0
2018-Mar-29 03:57N 38°32' W 028°37'0 0.0
2018-Mar-29 03:30N 38°32' W 028°37'0 0.0
2018-Mar-29 03:00N 38°32' W 028°37'0 0.0
2018-Mar-29 02:30N 38°32' W 028°37'0 0.0
2018-Mar-29 02:00N 38°32' W 028°37'0 0.0
2018-Mar-29 01:09N 38°32' W 028°37'0 0.0
2018-Mar-29 01:00N 38°32' W 028°37'0 0.0
2018-Mar-29 00:28N 38°32' W 028°37'0 0.0
2018-Mar-29 00:00N 38°32' W 028°37'0 0.0
2018-Mar-28 23:30N 38°32' W 028°37'0 0.0
2018-Mar-28 23:00N 38°32' W 028°37'0 0.0
2018-Mar-28 22:31N 38°32' W 028°37'0 0.0
2018-Mar-28 22:00N 38°32' W 028°37'0 0.0
2018-Mar-28 21:29N 38°32' W 028°37'0 0.0
2018-Mar-28 20:58N 38°32' W 028°37'0 0.0
2018-Mar-28 20:30N 38°32' W 028°37'0 0.0
2018-Mar-28 19:59N 38°32' W 028°37'0 0.0
2018-Mar-28 19:30N 38°32' W 028°37'0 0.0
2018-Mar-28 18:59N 38°32' W 028°37'0 0.0
2018-Mar-28 18:30N 38°32' W 028°37'0 0.0
2018-Mar-28 18:01N 38°32' W 028°37'0 0.0
2018-Mar-28 17:30N 38°32' W 028°37'0 0.0
2018-Mar-28 17:00N 38°32' W 028°37'0 0.0
2018-Mar-28 16:30N 38°32' W 028°37'0 0.0
2018-Mar-28 16:00N 38°32' W 028°37'0 0.0
2018-Mar-28 15:28N 38°32' W 028°37'0 0.0
2018-Mar-28 15:00N 38°32' W 028°37'0 0.0
2018-Mar-28 14:27N 38°32' W 028°37'0 0.0
2018-Mar-28 13:59N 38°32' W 028°37'0 0.0
2018-Mar-28 13:26N 38°32' W 028°37'0 0.0
2018-Mar-28 13:00N 38°32' W 028°37'0 0.0
2018-Mar-28 12:30N 38°32' W 028°37'0 0.0
2018-Mar-28 12:00N 38°32' W 028°37'0 0.0
2018-Mar-28 11:30N 38°32' W 028°37'0 0.0
2018-Mar-28 11:01N 38°32' W 028°37'0 0.0
2018-Mar-28 10:30N 38°32' W 028°37'0 0.0
2018-Mar-28 10:00N 38°32' W 028°37'0 0.0
2018-Mar-28 09:30N 38°32' W 028°37'0 0.0
2018-Mar-28 09:00N 38°32' W 028°37'0 0.0
2018-Mar-28 08:30N 38°32' W 028°37'0 0.0
2018-Mar-28 08:00N 38°32' W 028°37'0 0.0
2018-Mar-28 07:30N 38°32' W 028°37'0 0.0
2018-Mar-28 06:56N 38°32' W 028°37'0 0.0
2018-Mar-28 06:30N 38°32' W 028°37'0 0.0
2018-Mar-28 05:58N 38°32' W 028°37'0 0.0
2018-Mar-28 05:28N 38°32' W 028°37'0 0.0
2018-Mar-28 05:00N 38°32' W 028°37'0 0.0
2018-Mar-28 04:30N 38°32' W 028°37'0 0.0
2018-Mar-28 04:00N 38°32' W 028°37'0 0.0
2018-Mar-28 03:30N 38°32' W 028°37'0 0.0
2018-Mar-28 03:00N 38°32' W 028°37'0 0.0
2018-Mar-28 02:28N 38°32' W 028°37'0 0.0
2018-Mar-28 02:00N 38°32' W 028°37'0 0.0
2018-Mar-28 01:27N 38°32' W 028°37'0 0.0
2018-Mar-28 00:58N 38°32' W 028°37'0 0.0
2018-Mar-28 00:26N 38°32' W 028°37'  
Track history (hours):
 
Tides and Currents Weather Stations Pressure Air Temp Water Temp Dewpoint Dewpoint Depression Visibility Wind Speed Wind Dir Waves Ship Positions

Ilha De Sao Luis

Last reported at 2018-Apr-07 00:13 UTC. Time now 2018-Apr-23 21:14 UTC.
Position N 38°43' W 027°03'.
Warning: this ship's position is 16 days out of date.

; draft 3 m.

Type: Tug. MMSI: 204601240.

Date/timePositionNaut miles runAvg speedWind from/ knotsBaromVisibWave heightAir tempDewpointWater temp
2018-Apr-07 00:13N 38°43' W 027°03'0 0.2
2018-Apr-07 00:01N 38°43' W 027°03'1 1.1
2018-Apr-06 23:30N 38°43' W 027°03'1 1.6
2018-Apr-06 23:00N 38°43' W 027°03'0 0.0
2018-Apr-06 22:30N 38°43' W 027°03'0 0.0
2018-Apr-06 22:00N 38°43' W 027°03'0 0.0
2018-Apr-06 21:30N 38°43' W 027°03'0 0.0
2018-Apr-06 21:00N 38°43' W 027°03'0 0.0
2018-Apr-06 20:31N 38°43' W 027°03'0 0.0
2018-Apr-06 20:00N 38°43' W 027°03'0 0.0
2018-Apr-06 19:30N 38°43' W 027°03'0 0.0
2018-Apr-06 19:00N 38°43' W 027°03'0 0.0
2018-Apr-06 18:31N 38°43' W 027°03'0 0.0
2018-Apr-06 18:00N 38°43' W 027°03'0 0.0
2018-Apr-06 17:31N 38°43' W 027°03'0 0.0
2018-Apr-06 17:00N 38°43' W 027°03'0 0.0
2018-Apr-06 16:30N 38°43' W 027°03'2 3.8
2018-Apr-06 16:00N 38°42' W 027°01'7 8.6
2018-Apr-06 15:10N 38°38' W 027°09'210.6
2018-Apr-06 14:57N 38°38' W 027°12'410.0
2018-Apr-06 14:30N 38°36' W 027°17'5 9.8
2018-Apr-06 14:00N 38°34' W 027°22'5 9.9
2018-Apr-06 13:30N 38°33' W 027°29'5 9.9
2018-Apr-06 13:00N 38°33' W 027°35'510.3
2018-Apr-06 12:31N 38°32' W 027°41'610.5
2018-Apr-06 11:59N 38°31' W 027°49'510.5
2018-Apr-06 11:30N 38°33' W 027°55'712.1
2018-Apr-06 10:57N 38°35' W 028°03'511.7
2018-Apr-06 10:30N 38°36' W 028°10'611.4
2018-Apr-06 10:00N 38°36' W 028°17'611.4
2018-Apr-06 09:30N 38°35' W 028°24'510.6
2018-Apr-06 09:00N 38°35' W 028°31'510.7
2018-Apr-06 08:30N 38°32' W 028°37'1 1.6
2018-Apr-06 07:59N 38°32' W 028°37'0 0.0
2018-Apr-06 07:30N 38°32' W 028°37'0 0.0
2018-Apr-06 07:00N 38°32' W 028°37'0 0.0
2018-Apr-06 06:30N 38°32' W 028°37'0 0.0
2018-Apr-06 06:00N 38°32' W 028°37'0 0.0
2018-Apr-06 05:30N 38°32' W 028°37'0 0.0
2018-Apr-06 05:00N 38°32' W 028°37'0 0.0
2018-Apr-06 04:30N 38°32' W 028°37'0 0.0
2018-Apr-06 04:00N 38°32' W 028°37'0 0.0
2018-Apr-06 03:29N 38°32' W 028°37'0 0.0
2018-Apr-06 02:59N 38°32' W 028°37'0 0.0
2018-Apr-06 02:30N 38°32' W 028°37'0 0.0
2018-Apr-06 02:00N 38°32' W 028°37'0 0.0
2018-Apr-06 01:30N 38°32' W 028°37'0 0.0
2018-Apr-06 01:00N 38°32' W 028°37'0 0.0
2018-Apr-06 00:30N 38°32' W 028°37'0 0.0
2018-Apr-06 00:00N 38°32' W 028°37'0 0.0
2018-Apr-05 23:30N 38°32' W 028°37'0 0.0
2018-Apr-05 23:00N 38°32' W 028°37'0 0.0
2018-Apr-05 22:30N 38°32' W 028°37'0 0.0
2018-Apr-05 22:00N 38°32' W 028°37'0 0.0
2018-Apr-05 21:30N 38°32' W 028°37'0 0.0
2018-Apr-05 20:58N 38°32' W 028°37'0 0.0
2018-Apr-05 20:30N 38°32' W 028°37'0 0.0
2018-Apr-05 19:56N 38°32' W 028°37'0 0.0
2018-Apr-05 19:28N 38°32' W 028°37'0 0.0
2018-Apr-05 19:00N 38°32' W 028°37'0 0.0
2018-Apr-05 18:30N 38°32' W 028°37'0 0.0
2018-Apr-05 17:58N 38°32' W 028°37'0 0.0
2018-Apr-05 17:30N 38°32' W 028°37'0 0.0
2018-Apr-05 17:00N 38°32' W 028°37'0 0.0
2018-Apr-05 16:30N 38°32' W 028°37'0 0.0
2018-Apr-05 16:01N 38°32' W 028°37'0 0.0
2018-Apr-05 15:30N 38°32' W 028°37'0 0.0
2018-Apr-05 14:56N 38°32' W 028°37'0 0.0
2018-Apr-05 14:30N 38°32' W 028°37'0 0.0
2018-Apr-05 14:00N 38°32' W 028°37'0 0.0
2018-Apr-05 13:30N 38°32' W 028°37'0 0.0
2018-Apr-05 13:00N 38°32' W 028°37'0 0.0
2018-Apr-05 12:30N 38°32' W 028°37'0 0.0
2018-Apr-05 12:00N 38°32' W 028°37'0 0.0
2018-Apr-05 11:30N 38°32' W 028°37'0 0.0
2018-Apr-05 11:00N 38°32' W 028°37'0 0.0
2018-Apr-05 10:30N 38°32' W 028°37'0 0.0
2018-Apr-05 10:00N 38°32' W 028°37'0 0.0
2018-Apr-05 09:30N 38°32' W 028°37'0 0.0
2018-Apr-05 08:57N 38°32' W 028°37'0 0.0
2018-Apr-05 08:31N 38°32' W 028°37'0 0.0
2018-Apr-05 07:54N 38°32' W 028°37'0 0.0
2018-Apr-05 07:23N 38°32' W 028°37'0 0.0
2018-Apr-05 07:00N 38°32' W 028°37'0 0.0
2018-Apr-05 06:29N 38°32' W 028°37'0 0.0
2018-Apr-05 05:57N 38°32' W 028°37'0 0.0
2018-Apr-05 05:29N 38°32' W 028°37'0 0.0
2018-Apr-05 04:58N 38°32' W 028°37'0 0.0
2018-Apr-05 04:26N 38°32' W 028°37'0 0.0
2018-Apr-05 03:58N 38°32' W 028°37'0 0.0
2018-Apr-05 03:24N 38°32' W 028°37'0 0.0
2018-Apr-05 03:00N 38°32' W 028°37'0 0.0
2018-Apr-05 02:30N 38°32' W 028°37'0 0.0
2018-Apr-05 02:00N 38°32' W 028°37'0 0.0
2018-Apr-05 01:28N 38°32' W 028°37'0 0.0
2018-Apr-05 00:58N 38°32' W 028°37'0 0.0
2018-Apr-05 00:30N 38°32' W 028°37'0 0.0
2018-Apr-04 23:59N 38°32' W 028°37'0 0.0
2018-Apr-04 23:30N 38°32' W 028°37'0 0.0
2018-Apr-04 23:00N 38°32' W 028°37'0 0.0
2018-Apr-04 22:30N 38°32' W 028°37'0 0.0
2018-Apr-04 21:59N 38°32' W 028°37'0 0.0
2018-Apr-04 21:28N 38°32' W 028°37'0 0.0
2018-Apr-04 21:00N 38°32' W 028°37'0 0.0
2018-Apr-04 20:29N 38°32' W 028°37'0 0.0
2018-Apr-04 20:00N 38°32' W 028°37'0 0.0
2018-Apr-04 19:30N 38°32' W 028°37'0 0.0
2018-Apr-04 19:00N 38°32' W 028°37'0 0.0
2018-Apr-04 18:29N 38°32' W 028°37'0 0.0
2018-Apr-04 17:56N 38°32' W 028°37'0 0.0
2018-Apr-04 17:24N 38°32' W 028°37'0 0.0
2018-Apr-04 16:59N 38°32' W 028°37'0 0.0
2018-Apr-04 16:29N 38°32' W 028°37'0 0.0
2018-Apr-04 15:58N 38°32' W 028°37'0 0.0
2018-Apr-04 14:47N 38°32' W 028°37'0 0.0
2018-Apr-04 14:30N 38°32' W 028°37'0 0.0
2018-Apr-04 14:00N 38°32' W 028°37'0 0.0
2018-Apr-04 12:56N 38°32' W 028°37'0 0.0
2018-Apr-04 12:15N 38°32' W 028°37'0 0.0
2018-Apr-04 11:59N 38°32' W 028°37'0 0.0
2018-Apr-04 11:29N 38°32' W 028°37'0 0.0
2018-Apr-04 09:22N 38°32' W 028°37'0 0.0
2018-Apr-04 09:00N 38°32' W 028°37'0 0.0
2018-Apr-04 07:45N 38°32' W 028°37'0 0.0
2018-Apr-04 07:29N 38°32' W 028°37'0 0.0
2018-Apr-04 06:48N 38°32' W 028°37'0 0.0
2018-Apr-04 06:27N 38°32' W 028°37'0 0.0
2018-Apr-04 05:57N 38°32' W 028°37'0 0.0
2018-Apr-04 05:28N 38°32' W 028°37'0 0.0
2018-Apr-04 04:59N 38°32' W 028°37'0 0.0
2018-Apr-04 04:30N 38°32' W 028°37'0 0.0
2018-Apr-04 04:00N 38°32' W 028°37'0 0.0
2018-Apr-04 03:28N 38°32' W 028°37'0 0.0
2018-Apr-04 02:59N 38°32' W 028°37'0 0.0
2018-Apr-04 02:29N 38°32' W 028°37'0 0.0
2018-Apr-04 02:00N 38°32' W 028°37'0 0.0
2018-Apr-04 01:28N 38°32' W 028°37'0 0.0
2018-Apr-04 00:57N 38°32' W 028°37'0 0.0
2018-Apr-04 00:30N 38°32' W 028°37'0 0.0
2018-Apr-04 00:00N 38°32' W 028°37'0 0.0
2018-Apr-03 23:30N 38°32' W 028°37'0 0.0
2018-Apr-03 23:00N 38°32' W 028°37'0 0.0
2018-Apr-03 22:28N 38°32' W 028°37'0 0.0
2018-Apr-03 21:59N 38°32' W 028°37'0 0.0
2018-Apr-03 21:30N 38°32' W 028°37'0 0.0
2018-Apr-03 21:00N 38°32' W 028°37'0 0.0
2018-Apr-03 20:30N 38°32' W 028°37'0 0.0
2018-Apr-03 19:59N 38°32' W 028°37'0 0.0
2018-Apr-03 19:30N 38°32' W 028°37'0 0.0
2018-Apr-03 19:00N 38°32' W 028°37'0 0.0
2018-Apr-03 18:30N 38°32' W 028°37'0 0.0
2018-Apr-03 18:00N 38°32' W 028°37'0 0.0
2018-Apr-03 17:30N 38°32' W 028°37'0 0.0
2018-Apr-03 17:00N 38°32' W 028°37'0 0.0
2018-Apr-03 16:30N 38°32' W 028°37'0 0.0
2018-Apr-03 16:00N 38°32' W 028°37'0 0.0
2018-Apr-03 15:30N 38°32' W 028°37'0 0.0
2018-Apr-03 15:00N 38°32' W 028°37'0 0.0
2018-Apr-03 14:29N 38°32' W 028°37'0 0.0
2018-Apr-03 14:00N 38°32' W 028°37'0 0.0
2018-Apr-03 13:31N 38°32' W 028°37'0 0.0
2018-Apr-03 13:00N 38°32' W 028°37'0 0.0
2018-Apr-03 12:30N 38°32' W 028°37'0 0.0
2018-Apr-03 12:00N 38°32' W 028°37'0 0.0
2018-Apr-03 11:30N 38°32' W 028°37'0 0.0
2018-Apr-03 11:01N 38°32' W 028°37'0 0.0
2018-Apr-03 10:27N 38°32' W 028°37'0 0.0
2018-Apr-03 10:00N 38°32' W 028°37'0 0.0
2018-Apr-03 09:30N 38°32' W 028°37'0 0.3
2018-Apr-03 09:00N 38°32' W 028°37'0 0.0
2018-Apr-03 08:28N 38°32' W 028°37'0 0.0
2018-Apr-03 07:59N 38°32' W 028°37'0 0.0
2018-Apr-03 07:30N 38°32' W 028°37'0 0.0
2018-Apr-03 06:59N 38°32' W 028°37'0 0.0
2018-Apr-03 06:27N 38°32' W 028°37'0 0.0
2018-Apr-03 05:58N 38°32' W 028°37'0 0.0
2018-Apr-03 05:30N 38°32' W 028°37'0 0.0
2018-Apr-03 05:00N 38°32' W 028°37'0 0.0
2018-Apr-03 04:29N 38°32' W 028°37'0 0.0
2018-Apr-03 04:00N 38°32' W 028°37'0 0.0
2018-Apr-03 03:29N 38°32' W 028°37'0 0.0
2018-Apr-03 03:00N 38°32' W 028°37'0 0.0
2018-Apr-03 02:30N 38°32' W 028°37'0 0.0
2018-Apr-03 02:00N 38°32' W 028°37'0 0.0
2018-Apr-03 01:30N 38°32' W 028°37'0 0.0
2018-Apr-03 01:00N 38°32' W 028°37'0 0.0
2018-Apr-03 00:28N 38°32' W 028°37'0 0.0
2018-Apr-03 00:00N 38°32' W 028°37'0 0.0
2018-Apr-02 23:30N 38°32' W 028°37'0 0.0
2018-Apr-02 22:59N 38°32' W 028°37'0 0.0
2018-Apr-02 22:30N 38°32' W 028°37'0 0.0
2018-Apr-02 21:59N 38°32' W 028°37'0 0.0
2018-Apr-02 21:28N 38°32' W 028°37'0 0.0
2018-Apr-02 20:57N 38°32' W 028°37'0 0.0
2018-Apr-02 20:30N 38°32' W 028°37'0 0.0
2018-Apr-02 19:58N 38°32' W 028°37'0 0.0
2018-Apr-02 19:28N 38°32' W 028°37'0 0.0
2018-Apr-02 18:59N 38°32' W 028°37'0 0.0
2018-Apr-02 18:27N 38°32' W 028°37'0 0.0
2018-Apr-02 18:01N 38°32' W 028°37'0 0.0
2018-Apr-02 17:29N 38°32' W 028°37'0 0.0
2018-Apr-02 17:00N 38°32' W 028°37'0 0.0
2018-Apr-02 16:30N 38°32' W 028°37'0 0.0
2018-Apr-02 16:00N 38°32' W 028°37'0 0.0
2018-Apr-02 15:30N 38°32' W 028°37'0 0.0
2018-Apr-02 14:58N 38°32' W 028°37'0 0.0
2018-Apr-02 14:28N 38°32' W 028°37'0 0.0
2018-Apr-02 14:00N 38°32' W 028°37'0 0.0
2018-Apr-02 13:30N 38°32' W 028°37'0 0.0
2018-Apr-02 12:58N 38°32' W 028°37'0 0.0
2018-Apr-02 12:30N 38°32' W 028°37'0 0.0
2018-Apr-02 12:00N 38°32' W 028°37'0 0.0
2018-Apr-02 11:30N 38°32' W 028°37'0 0.0
2018-Apr-02 11:00N 38°32' W 028°37'0 0.0
2018-Apr-02 10:30N 38°32' W 028°37'0 0.0
2018-Apr-02 10:00N 38°32' W 028°37'0 0.0
2018-Apr-02 09:16N 38°32' W 028°37'0 0.0
2018-Apr-02 08:58N 38°32' W 028°37'0 0.0
2018-Apr-02 08:30N 38°32' W 028°37'0 0.0
2018-Apr-02 08:00N 38°32' W 028°37'0 0.0
2018-Apr-02 07:30N 38°32' W 028°37'0 0.0
2018-Apr-02 07:00N 38°32' W 028°37'0 0.0
2018-Apr-02 06:29N 38°32' W 028°37'0 0.0
2018-Apr-02 05:59N 38°32' W 028°37'0 0.0
2018-Apr-02 05:30N 38°32' W 028°37'0 0.0
2018-Apr-02 04:59N 38°32' W 028°37'0 0.0
2018-Apr-02 04:30N 38°32' W 028°37'0 0.0
2018-Apr-02 04:00N 38°32' W 028°37'0 0.0
2018-Apr-02 03:20N 38°32' W 028°37'0 0.0
2018-Apr-02 02:59N 38°32' W 028°37'0 0.0
2018-Apr-02 02:29N 38°32' W 028°37'0 0.0
2018-Apr-02 01:40N 38°32' W 028°37'0 0.0
2018-Apr-02 01:30N 38°32' W 028°37'0 0.0
2018-Apr-02 00:51N 38°32' W 028°37'0 0.0
2018-Apr-02 00:27N 38°32' W 028°37'0 0.0
2018-Apr-01 23:59N 38°32' W 028°37'0 0.0
2018-Apr-01 23:24N 38°32' W 028°37'0 0.0
2018-Apr-01 22:59N 38°32' W 028°37'0 0.0
2018-Apr-01 22:28N 38°32' W 028°37'0 0.0
2018-Apr-01 21:54N 38°32' W 028°37'0 0.0
2018-Apr-01 21:30N 38°32' W 028°37'0 0.0
2018-Apr-01 20:59N 38°32' W 028°37'0 0.0
2018-Apr-01 20:29N 38°32' W 028°37'0 0.0
2018-Apr-01 19:57N 38°32' W 028°37'0 0.0
2018-Apr-01 19:26N 38°32' W 028°37'0 0.0
2018-Apr-01 19:00N 38°32' W 028°37'0 0.0
2018-Apr-01 18:30N 38°32' W 028°37'0 0.0
2018-Apr-01 18:00N 38°32' W 028°37'0 0.0
2018-Apr-01 17:28N 38°32' W 028°37'0 0.0
2018-Apr-01 17:00N 38°32' W 028°37'0 0.0
2018-Apr-01 16:30N 38°32' W 028°37'0 0.0
2018-Apr-01 16:00N 38°32' W 028°37'0 0.0
2018-Apr-01 15:30N 38°32' W 028°37'0 0.0
2018-Apr-01 15:00N 38°32' W 028°37'0 0.0
2018-Apr-01 14:29N 38°32' W 028°37'0 0.0
2018-Apr-01 14:00N 38°32' W 028°37'0 0.0
2018-Apr-01 13:30N 38°32' W 028°37'0 0.0
2018-Apr-01 13:00N 38°32' W 028°37'0 0.0
2018-Apr-01 12:29N 38°32' W 028°37'0 0.0
2018-Apr-01 12:01N 38°32' W 028°37'0 0.0
2018-Apr-01 11:29N 38°32' W 028°37'0 0.0
2018-Apr-01 10:59N 38°32' W 028°37'0 0.0
2018-Apr-01 10:29N 38°32' W 028°37'0 0.0
2018-Apr-01 10:00N 38°32' W 028°37'0 0.0
2018-Apr-01 09:28N 38°32' W 028°37'0 0.0
2018-Apr-01 08:58N 38°32' W 028°37'0 0.0
2018-Apr-01 08:20N 38°32' W 028°37'0 0.0
2018-Apr-01 07:56N 38°32' W 028°37'0 0.0
2018-Apr-01 07:27N 38°32' W 028°37'0 0.0
2018-Apr-01 06:59N 38°32' W 028°37'0 0.0
2018-Apr-01 06:30N 38°32' W 028°37'0 0.0
2018-Apr-01 05:34N 38°32' W 028°37'0 0.0
2018-Apr-01 05:24N 38°32' W 028°37'0 0.0
2018-Apr-01 04:56N 38°32' W 028°37'0 0.0
2018-Apr-01 04:30N 38°32' W 028°37'0 0.0
2018-Apr-01 04:00N 38°32' W 028°37'0 0.0
2018-Apr-01 03:25N 38°32' W 028°37'0 0.0
2018-Apr-01 02:59N 38°32' W 028°37'0 0.0
2018-Apr-01 02:30N 38°32' W 028°37'0 0.0
2018-Apr-01 01:59N 38°32' W 028°37'0 0.0
2018-Apr-01 01:28N 38°32' W 028°37'0 0.0
2018-Apr-01 00:58N 38°32' W 028°37'0 0.0
2018-Apr-01 00:28N 38°32' W 028°37'0 0.0
2018-Mar-31 23:42N 38°32' W 028°37'0 0.0
2018-Mar-31 23:24N 38°32' W 028°37'0 0.0
2018-Mar-31 22:57N 38°32' W 028°37'0 0.0
2018-Mar-31 22:29N 38°32' W 028°37'0 0.0
2018-Mar-31 21:58N 38°32' W 028°37'0 0.0
2018-Mar-31 21:30N 38°32' W 028°37'0 0.0
2018-Mar-31 20:58N 38°32' W 028°37'0 0.0
2018-Mar-31 20:28N 38°32' W 028°37'0 0.0
2018-Mar-31 20:00N 38°32' W 028°37'0 0.0
2018-Mar-31 19:00N 38°32' W 028°37'0 0.0
2018-Mar-31 18:30N 38°32' W 028°37'0 0.0
2018-Mar-31 17:57N 38°32' W 028°37'0 0.0
2018-Mar-31 17:20N 38°32' W 028°37'0 0.0
2018-Mar-31 17:00N 38°32' W 028°37'0 0.0
2018-Mar-31 16:03N 38°32' W 028°37'0 0.0
2018-Mar-31 15:51N 38°32' W 028°37'0 0.0
2018-Mar-31 15:02N 38°32' W 028°37'0 0.0
2018-Mar-31 14:41N 38°32' W 028°37'0 0.0
2018-Mar-31 14:29N 38°32' W 028°37'0 0.0
2018-Mar-31 13:56N 38°32' W 028°37'0 0.0
2018-Mar-31 13:30N 38°32' W 028°37'0 0.0
2018-Mar-31 12:54N 38°32' W 028°37'0 0.0
2018-Mar-31 12:20N 38°32' W 028°37'0 0.0
2018-Mar-31 11:53N 38°32' W 028°37'0 0.0
2018-Mar-31 10:48N 38°32' W 028°37'0 0.0
2018-Mar-31 09:13N 38°32' W 028°37'0 0.0
2018-Mar-31 07:00N 38°32' W 028°37'0 0.0
2018-Mar-31 06:22N 38°32' W 028°37'0 0.0
2018-Mar-31 05:02N 38°32' W 028°37'0 0.0
2018-Mar-31 02:55N 38°32' W 028°37'0 0.0
2018-Mar-31 02:11N 38°32' W 028°37'0 0.0
2018-Mar-31 01:43N 38°32' W 028°37'0 0.0
2018-Mar-31 01:26N 38°32' W 028°37'0 0.0
2018-Mar-31 00:57N 38°32' W 028°37'0 0.0
2018-Mar-31 00:20N 38°32' W 028°37'0 0.0
2018-Mar-30 22:53N 38°32' W 028°37'0 0.0
2018-Mar-30 19:58N 38°32' W 028°37'0 0.0
2018-Mar-30 19:20N 38°32' W 028°37'0 0.0
2018-Mar-30 18:59N 38°32' W 028°37'0 0.0
2018-Mar-30 17:40N 38°32' W 028°37'0 0.0
2018-Mar-30 17:30N 38°32' W 028°37'0 0.0
2018-Mar-30 16:34N 38°32' W 028°37'0 0.0
2018-Mar-30 15:37N 38°32' W 028°37'0 0.0
2018-Mar-30 15:08N 38°32' W 028°37'0 0.0
2018-Mar-30 14:58N 38°32' W 028°37'0 0.0
2018-Mar-30 14:28N 38°32' W 028°37'0 0.0
2018-Mar-30 13:26N 38°32' W 028°37'0 0.0
2018-Mar-30 12:59N 38°32' W 028°37'0 0.0
2018-Mar-30 12:27N 38°32' W 028°37'0 0.0
2018-Mar-30 12:00N 38°32' W 028°37'0 0.0
2018-Mar-30 11:28N 38°32' W 028°37'0 0.0
2018-Mar-30 10:57N 38°32' W 028°37'0 0.0
2018-Mar-30 10:25N 38°32' W 028°37'0 0.0
2018-Mar-30 10:00N 38°32' W 028°37'0 0.0
2018-Mar-30 09:27N 38°32' W 028°37'0 0.0
2018-Mar-30 08:58N 38°32' W 028°37'0 0.0
2018-Mar-30 08:30N 38°32' W 028°37'0 0.0
2018-Mar-30 07:59N 38°32' W 028°37'0 0.0
2018-Mar-30 07:29N 38°32' W 028°37'0 0.0
2018-Mar-30 06:57N 38°32' W 028°37'0 0.0
2018-Mar-30 06:30N 38°32' W 028°37'0 0.0
2018-Mar-30 05:59N 38°32' W 028°37'0 0.0
2018-Mar-30 05:27N 38°32' W 028°37'0 0.0
2018-Mar-30 04:59N 38°32' W 028°37'0 0.0
2018-Mar-30 04:27N 38°32' W 028°37'0 0.0
2018-Mar-30 04:00N 38°32' W 028°37'0 0.0
2018-Mar-30 03:25N 38°32' W 028°37'0 0.0
2018-Mar-30 02:59N 38°32' W 028°37'0 0.0
2018-Mar-30 02:25N 38°32' W 028°37'0 0.0
2018-Mar-30 01:59N 38°32' W 028°37'0 0.0
2018-Mar-30 01:30N 38°32' W 028°37'0 0.0
2018-Mar-30 01:00N 38°32' W 028°37'0 0.0
2018-Mar-30 00:30N 38°32' W 028°37'0 0.0
2018-Mar-30 00:00N 38°32' W 028°37'0 0.0
2018-Mar-29 23:30N 38°32' W 028°37'0 0.0
2018-Mar-29 22:59N 38°32' W 028°37'0 0.0
2018-Mar-29 22:29N 38°32' W 028°37'0 0.0
2018-Mar-29 22:00N 38°32' W 028°37'0 0.0
2018-Mar-29 21:29N 38°32' W 028°37'0 0.0
2018-Mar-29 20:58N 38°32' W 028°37'0 0.0
2018-Mar-29 20:28N 38°32' W 028°37'0 0.0
2018-Mar-29 20:00N 38°32' W 028°37'0 0.0
2018-Mar-29 19:27N 38°32' W 028°37'0 0.0
2018-Mar-29 19:00N 38°32' W 028°37'0 0.0
2018-Mar-29 18:30N 38°32' W 028°37'0 0.0
2018-Mar-29 18:00N 38°32' W 028°37'0 0.0
2018-Mar-29 17:29N 38°32' W 028°37'0 0.0
2018-Mar-29 17:00N 38°32' W 028°37'0 0.0
2018-Mar-29 16:30N 38°32' W 028°37'0 0.0
2018-Mar-29 16:00N 38°32' W 028°37'0 0.0
2018-Mar-29 15:30N 38°32' W 028°37'0 0.0
2018-Mar-29 15:00N 38°32' W 028°37'0 0.0
2018-Mar-29 14:30N 38°32' W 028°37'0 0.0
2018-Mar-29 14:00N 38°32' W 028°37'0 0.0
2018-Mar-29 13:30N 38°32' W 028°37'0 0.0
2018-Mar-29 13:00N 38°32' W 028°37'0 0.0
2018-Mar-29 12:30N 38°32' W 028°37'0 0.0
2018-Mar-29 12:00N 38°32' W 028°37'0 0.0
2018-Mar-29 11:29N 38°32' W 028°37'0 0.0
2018-Mar-29 11:00N 38°32' W 028°37'0 0.0
2018-Mar-29 10:30N 38°32' W 028°37'0 0.0
2018-Mar-29 09:59N 38°32' W 028°37'0 0.0
2018-Mar-29 09:29N 38°32' W 028°37'0 0.0
2018-Mar-29 09:00N 38°32' W 028°37'0 0.0
2018-Mar-29 08:25N 38°32' W 028°37'0 0.0
2018-Mar-29 07:57N 38°32' W 028°37'0 0.0
2018-Mar-29 07:27N 38°32' W 028°37'0 0.0
2018-Mar-29 06:56N 38°32' W 028°37'0 0.0
2018-Mar-29 06:28N 38°32' W 028°37'0 0.0
2018-Mar-29 06:00N 38°32' W 028°37'0 0.0
2018-Mar-29 05:30N 38°32' W 028°37'0 0.0
2018-Mar-29 05:00N 38°32' W 028°37'0 0.0
2018-Mar-29 04:30N 38°32' W 028°37'0 0.0
2018-Mar-29 03:57N 38°32' W 028°37'0 0.0
2018-Mar-29 03:30N 38°32' W 028°37'0 0.0
2018-Mar-29 03:00N 38°32' W 028°37'0 0.0
2018-Mar-29 02:30N 38°32' W 028°37'0 0.0
2018-Mar-29 02:00N 38°32' W 028°37'0 0.0
2018-Mar-29 01:09N 38°32' W 028°37'0 0.0
2018-Mar-29 01:00N 38°32' W 028°37'0 0.0
2018-Mar-29 00:28N 38°32' W 028°37'0 0.0
2018-Mar-29 00:00N 38°32' W 028°37'0 0.0
2018-Mar-28 23:30N 38°32' W 028°37'0 0.0
2018-Mar-28 23:00N 38°32' W 028°37'0 0.0
2018-Mar-28 22:31N 38°32' W 028°37'0 0.0
2018-Mar-28 22:00N 38°32' W 028°37'0 0.0
2018-Mar-28 21:29N 38°32' W 028°37'0 0.0
2018-Mar-28 20:58N 38°32' W 028°37'0 0.0
2018-Mar-28 20:30N 38°32' W 028°37'0 0.0
2018-Mar-28 19:59N 38°32' W 028°37'0 0.0
2018-Mar-28 19:30N 38°32' W 028°37'0 0.0
2018-Mar-28 18:59N 38°32' W 028°37'0 0.0
2018-Mar-28 18:30N 38°32' W 028°37'0 0.0
2018-Mar-28 18:01N 38°32' W 028°37'0 0.0
2018-Mar-28 17:30N 38°32' W 028°37'0 0.0
2018-Mar-28 17:00N 38°32' W 028°37'0 0.0
2018-Mar-28 16:30N 38°32' W 028°37'0 0.0
2018-Mar-28 16:00N 38°32' W 028°37'0 0.0
2018-Mar-28 15:28N 38°32' W 028°37'0 0.0
2018-Mar-28 15:00N 38°32' W 028°37'0 0.0
2018-Mar-28 14:27N 38°32' W 028°37'0 0.0
2018-Mar-28 13:59N 38°32' W 028°37'0 0.0
2018-Mar-28 13:26N 38°32' W 028°37'0 0.0
2018-Mar-28 13:00N 38°32' W 028°37'0 0.0
2018-Mar-28 12:30N 38°32' W 028°37'0 0.0
2018-Mar-28 12:00N 38°32' W 028°37'0 0.0
2018-Mar-28 11:30N 38°32' W 028°37'0 0.0
2018-Mar-28 11:01N 38°32' W 028°37'0 0.0
2018-Mar-28 10:30N 38°32' W 028°37'0 0.0
2018-Mar-28 10:00N 38°32' W 028°37'0 0.0
2018-Mar-28 09:30N 38°32' W 028°37'0 0.0
2018-Mar-28 09:00N 38°32' W 028°37'0 0.0
2018-Mar-28 08:30N 38°32' W 028°37'0 0.0
2018-Mar-28 08:00N 38°32' W 028°37'0 0.0
2018-Mar-28 07:30N 38°32' W 028°37'0 0.0
2018-Mar-28 06:56N 38°32' W 028°37'0 0.0
2018-Mar-28 06:30N 38°32' W 028°37'0 0.0
2018-Mar-28 05:58N 38°32' W 028°37'0 0.0
2018-Mar-28 05:28N 38°32' W 028°37'0 0.0
2018-Mar-28 05:00N 38°32' W 028°37'0 0.0
2018-Mar-28 04:30N 38°32' W 028°37'0 0.0
2018-Mar-28 04:00N 38°32' W 028°37'0 0.0
2018-Mar-28 03:30N 38°32' W 028°37'0 0.0
2018-Mar-28 03:00N 38°32' W 028°37'0 0.0
2018-Mar-28 02:28N 38°32' W 028°37'0 0.0
2018-Mar-28 02:00N 38°32' W 028°37'0 0.0
2018-Mar-28 01:27N 38°32' W 028°37'0 0.0
2018-Mar-28 00:58N 38°32' W 028°37'0 0.0
2018-Mar-28 00:26N 38°32' W 028°37'  

Dump ship's entire track history